sensor_id;sensor_type;location;lat;lon;timestamp;temperature;humidity
2749;DHT22;1382;52.142;11.618;2022-07-05T00:00:59;23.00;37.40
2749;DHT22;1382;52.142;11.618;2022-07-05T00:03:26;22.90;37.40
2749;DHT22;1382;52.142;11.618;2022-07-05T00:05:53;22.90;37.30
2749;DHT22;1382;52.142;11.618;2022-07-05T00:08:20;22.90;37.50
2749;DHT22;1382;52.142;11.618;2022-07-05T00:10:47;22.80;37.10
2749;DHT22;1382;52.142;11.618;2022-07-05T00:13:16;22.80;37.10
2749;DHT22;1382;52.142;11.618;2022-07-05T00:15:42;22.80;37.50
2749;DHT22;1382;52.142;11.618;2022-07-05T00:18:09;22.90;37.60
2749;DHT22;1382;52.142;11.618;2022-07-05T00:20:36;22.70;37.10
2749;DHT22;1382;52.142;11.618;2022-07-05T00:23:03;22.70;38.00
2749;DHT22;1382;52.142;11.618;2022-07-05T00:25:30;22.60;38.00
2749;DHT22;1382;52.142;11.618;2022-07-05T00:27:57;22.60;38.30
2749;DHT22;1382;52.142;11.618;2022-07-05T00:30:25;22.60;38.20
2749;DHT22;1382;52.142;11.618;2022-07-05T00:32:52;22.50;38.40
2749;DHT22;1382;52.142;11.618;2022-07-05T00:35:19;22.50;38.70
2749;DHT22;1382;52.142;11.618;2022-07-05T00:37:45;22.40;38.90
2749;DHT22;1382;52.142;11.618;2022-07-05T00:40:12;22.40;39.10
2749;DHT22;1382;52.142;11.618;2022-07-05T00:42:39;22.40;38.90
2749;DHT22;1382;52.142;11.618;2022-07-05T00:45:07;22.40;38.90
2749;DHT22;1382;52.142;11.618;2022-07-05T00:47:35;22.30;38.60
2749;DHT22;1382;52.142;11.618;2022-07-05T00:50:03;22.30;38.90
2749;DHT22;1382;52.142;11.618;2022-07-05T00:52:30;22.30;38.90
2749;DHT22;1382;52.142;11.618;2022-07-05T00:54:57;22.30;39.00
2749;DHT22;1382;52.142;11.618;2022-07-05T00:57:24;22.20;38.40
2749;DHT22;1382;52.142;11.618;2022-07-05T00:59:51;22.20;37.60
2749;DHT22;1382;52.142;11.618;2022-07-05T01:02:18;22.20;37.80
2749;DHT22;1382;52.142;11.618;2022-07-05T01:04:48;22.20;38.10
2749;DHT22;1382;52.142;11.618;2022-07-05T01:07:15;22.20;38.70
2749;DHT22;1382;52.142;11.618;2022-07-05T01:09:42;22.10;39.30
2749;DHT22;1382;52.142;11.618;2022-07-05T01:12:09;22.10;39.80
2749;DHT22;1382;52.142;11.618;2022-07-05T01:14:36;22.00;40.20
2749;DHT22;1382;52.142;11.618;2022-07-05T01:17:03;22.00;40.30
2749;DHT22;1382;52.142;11.618;2022-07-05T01:19:31;22.00;40.80
2749;DHT22;1382;52.142;11.618;2022-07-05T01:22:01;22.00;40.30
2749;DHT22;1382;52.142;11.618;2022-07-05T01:24:30;21.90;39.60
2749;DHT22;1382;52.142;11.618;2022-07-05T01:26:57;21.90;39.30
2749;DHT22;1382;52.142;11.618;2022-07-05T01:29:24;21.90;38.90
2749;DHT22;1382;52.142;11.618;2022-07-05T01:31:51;21.80;38.20
2749;DHT22;1382;52.142;11.618;2022-07-05T01:34:19;21.80;37.80
2749;DHT22;1382;52.142;11.618;2022-07-05T01:36:45;21.80;37.40
2749;DHT22;1382;52.142;11.618;2022-07-05T01:39:12;21.70;37.70
2749;DHT22;1382;52.142;11.618;2022-07-05T01:41:40;21.70;37.20
2749;DHT22;1382;52.142;11.618;2022-07-05T01:44:07;21.70;37.10
2749;DHT22;1382;52.142;11.618;2022-07-05T01:46:34;21.70;37.50
2749;DHT22;1382;52.142;11.618;2022-07-05T01:49:04;21.70;37.40
2749;DHT22;1382;52.142;11.618;2022-07-05T01:51:34;21.60;37.40
2749;DHT22;1382;52.142;11.618;2022-07-05T01:54:03;21.60;37.20
2749;DHT22;1382;52.142;11.618;2022-07-05T01:56:30;21.60;37.20
2749;DHT22;1382;52.142;11.618;2022-07-05T01:58:59;21.60;37.60
2749;DHT22;1382;52.142;11.618;2022-07-05T02:01:36;21.50;37.30
2749;DHT22;1382;52.142;11.618;2022-07-05T02:04:05;21.50;37.50
2749;DHT22;1382;52.142;11.618;2022-07-05T02:06:32;21.50;37.70
2749;DHT22;1382;52.142;11.618;2022-07-05T02:08:59;21.40;37.70
2749;DHT22;1382;52.142;11.618;2022-07-05T02:11:26;21.40;37.90
2749;DHT22;1382;52.142;11.618;2022-07-05T02:13:53;21.40;37.50
2749;DHT22;1382;52.142;11.618;2022-07-05T02:16:25;21.40;38.70
2749;DHT22;1382;52.142;11.618;2022-07-05T02:18:52;21.30;38.80
2749;DHT22;1382;52.142;11.618;2022-07-05T02:21:19;21.30;38.10
2749;DHT22;1382;52.142;11.618;2022-07-05T02:23:45;21.30;38.20
2749;DHT22;1382;52.142;11.618;2022-07-05T02:26:12;21.30;38.30
2749;DHT22;1382;52.142;11.618;2022-07-05T02:28:39;21.20;38.40
2749;DHT22;1382;52.142;11.618;2022-07-05T02:31:06;21.20;38.60
2749;DHT22;1382;52.142;11.618;2022-07-05T02:33:34;21.20;38.90
2749;DHT22;1382;52.142;11.618;2022-07-05T02:36:06;21.10;39.90
2749;DHT22;1382;52.142;11.618;2022-07-05T02:38:33;21.30;39.40
2749;DHT22;1382;52.142;11.618;2022-07-05T02:41:00;21.00;38.60
2749;DHT22;1382;52.142;11.618;2022-07-05T02:43:26;21.00;38.20
2749;DHT22;1382;52.142;11.618;2022-07-05T02:45:53;21.00;38.30
2749;DHT22;1382;52.142;11.618;2022-07-05T02:48:20;21.00;38.50
2749;DHT22;1382;52.142;11.618;2022-07-05T02:50:48;20.90;38.90
2749;DHT22;1382;52.142;11.618;2022-07-05T02:53:15;20.90;39.50
2749;DHT22;1382;52.142;11.618;2022-07-05T02:55:41;20.90;40.40
2749;DHT22;1382;52.142;11.618;2022-07-05T02:58:08;20.90;41.10
2749;DHT22;1382;52.142;11.618;2022-07-05T03:00:35;20.80;41.20
2749;DHT22;1382;52.142;11.618;2022-07-05T03:03:02;20.80;41.20
2749;DHT22;1382;52.142;11.618;2022-07-05T03:05:28;20.80;41.10
2749;DHT22;1382;52.142;11.618;2022-07-05T03:07:57;20.80;41.30
2749;DHT22;1382;52.142;11.618;2022-07-05T03:10:23;20.70;40.50
2749;DHT22;1382;52.142;11.618;2022-07-05T03:12:50;20.70;39.50
2749;DHT22;1382;52.142;11.618;2022-07-05T03:15:17;20.70;40.80
2749;DHT22;1382;52.142;11.618;2022-07-05T03:17:44;20.70;41.20
2749;DHT22;1382;52.142;11.618;2022-07-05T03:20:11;20.60;41.10
2749;DHT22;1382;52.142;11.618;2022-07-05T03:22:38;20.60;41.60
2749;DHT22;1382;52.142;11.618;2022-07-05T03:25:07;20.60;41.50
2749;DHT22;1382;52.142;11.618;2022-07-05T03:27:34;20.60;41.70
2749;DHT22;1382;52.142;11.618;2022-07-05T03:30:01;20.60;42.50
2749;DHT22;1382;52.142;11.618;2022-07-05T03:32:27;20.50;42.30
2749;DHT22;1382;52.142;11.618;2022-07-05T03:34:54;20.60;42.20
2749;DHT22;1382;52.142;11.618;2022-07-05T03:37:21;20.50;42.20
2749;DHT22;1382;52.142;11.618;2022-07-05T03:39:48;20.50;42.30
2749;DHT22;1382;52.142;11.618;2022-07-05T03:42:16;20.50;42.60
2749;DHT22;1382;52.142;11.618;2022-07-05T03:44:43;20.50;42.90
2749;DHT22;1382;52.142;11.618;2022-07-05T03:47:10;20.50;42.50
2749;DHT22;1382;52.142;11.618;2022-07-05T03:49:37;20.50;42.80
2749;DHT22;1382;52.142;11.618;2022-07-05T03:52:04;20.50;42.70
2749;DHT22;1382;52.142;11.618;2022-07-05T03:54:31;20.50;43.10
2749;DHT22;1382;52.142;11.618;2022-07-05T03:56:57;20.50;43.10
2749;DHT22;1382;52.142;11.618;2022-07-05T03:59:26;20.40;43.10
2749;DHT22;1382;52.142;11.618;2022-07-05T04:01:52;20.40;43.30
2749;DHT22;1382;52.142;11.618;2022-07-05T04:04:19;20.40;43.10
2749;DHT22;1382;52.142;11.618;2022-07-05T04:06:46;20.40;43.00
2749;DHT22;1382;52.142;11.618;2022-07-05T04:09:13;20.40;43.10
2749;DHT22;1382;52.142;11.618;2022-07-05T04:11:40;20.40;43.60
2749;DHT22;1382;52.142;11.618;2022-07-05T04:14:07;20.40;43.30
2749;DHT22;1382;52.142;11.618;2022-07-05T04:16:35;20.40;43.60
2749;DHT22;1382;52.142;11.618;2022-07-05T04:19:02;20.40;43.40
2749;DHT22;1382;52.142;11.618;2022-07-05T04:21:29;20.40;43.50
2749;DHT22;1382;52.142;11.618;2022-07-05T04:23:56;20.40;43.80
2749;DHT22;1382;52.142;11.618;2022-07-05T04:26:23;20.40;43.30
2749;DHT22;1382;52.142;11.618;2022-07-05T04:28:50;20.50;42.80
2749;DHT22;1382;52.142;11.618;2022-07-05T04:31:22;20.50;42.60
2749;DHT22;1382;52.142;11.618;2022-07-05T04:33:50;20.50;42.90
2749;DHT22;1382;52.142;11.618;2022-07-05T04:36:17;20.50;43.40
2749;DHT22;1382;52.142;11.618;2022-07-05T04:38:44;20.50;43.00
2749;DHT22;1382;52.142;11.618;2022-07-05T04:41:11;20.50;43.80
2749;DHT22;1382;52.142;11.618;2022-07-05T04:43:38;20.50;44.10
2749;DHT22;1382;52.142;11.618;2022-07-05T04:46:04;20.50;43.90
2749;DHT22;1382;52.142;11.618;2022-07-05T04:48:31;20.60;43.50
2749;DHT22;1382;52.142;11.618;2022-07-05T04:50:59;20.60;43.70
2749;DHT22;1382;52.142;11.618;2022-07-05T04:53:26;20.60;44.60
2749;DHT22;1382;52.142;11.618;2022-07-05T04:55:53;20.60;43.90
2749;DHT22;1382;52.142;11.618;2022-07-05T04:58:19;20.60;44.20
2749;DHT22;1382;52.142;11.618;2022-07-05T05:00:46;20.70;44.40
2749;DHT22;1382;52.142;11.618;2022-07-05T05:03:13;20.70;44.70
2749;DHT22;1382;52.142;11.618;2022-07-05T05:05:40;20.80;44.60
2749;DHT22;1382;52.142;11.618;2022-07-05T05:08:08;20.80;44.40
2749;DHT22;1382;52.142;11.618;2022-07-05T05:10:34;20.90;44.50
2749;DHT22;1382;52.142;11.618;2022-07-05T05:13:01;20.90;44.20
2749;DHT22;1382;52.142;11.618;2022-07-05T05:15:28;21.00;44.50
2749;DHT22;1382;52.142;11.618;2022-07-05T05:17:55;21.00;43.90
2749;DHT22;1382;52.142;11.618;2022-07-05T05:20:21;21.10;43.80
2749;DHT22;1382;52.142;11.618;2022-07-05T05:22:48;21.30;43.60
2749;DHT22;1382;52.142;11.618;2022-07-05T05:25:16;21.40;43.30
2749;DHT22;1382;52.142;11.618;2022-07-05T05:27:44;21.50;43.90
2749;DHT22;1382;52.142;11.618;2022-07-05T05:30:15;21.60;43.70
2749;DHT22;1382;52.142;11.618;2022-07-05T05:32:42;21.70;43.00
2749;DHT22;1382;52.142;11.618;2022-07-05T05:35:09;21.80;42.80
2749;DHT22;1382;52.142;11.618;2022-07-05T05:37:45;22.00;43.40
2749;DHT22;1382;52.142;11.618;2022-07-05T05:40:12;22.20;43.10
2749;DHT22;1382;52.142;11.618;2022-07-05T05:42:40;22.20;43.60
2749;DHT22;1382;52.142;11.618;2022-07-05T05:45:08;22.40;43.30
2749;DHT22;1382;52.142;11.618;2022-07-05T05:47:43;22.50;42.60
2749;DHT22;1382;52.142;11.618;2022-07-05T05:50:09;22.60;42.70
2749;DHT22;1382;52.142;11.618;2022-07-05T05:52:36;22.80;43.90
2749;DHT22;1382;52.142;11.618;2022-07-05T05:55:16;22.90;43.80
2749;DHT22;1382;52.142;11.618;2022-07-05T05:57:45;23.10;42.40
2749;DHT22;1382;52.142;11.618;2022-07-05T06:00:13;23.30;41.90
2749;DHT22;1382;52.142;11.618;2022-07-05T06:02:40;23.40;41.30
2749;DHT22;1382;52.142;11.618;2022-07-05T06:05:08;23.60;41.00
2749;DHT22;1382;52.142;11.618;2022-07-05T06:07:45;23.70;40.90
2749;DHT22;1382;52.142;11.618;2022-07-05T06:10:15;23.90;40.60
2749;DHT22;1382;52.142;11.618;2022-07-05T06:12:42;24.00;40.30
2749;DHT22;1382;52.142;11.618;2022-07-05T06:15:10;24.10;40.10
2749;DHT22;1382;52.142;11.618;2022-07-05T06:17:38;24.30;39.40
2749;DHT22;1382;52.142;11.618;2022-07-05T06:20:07;24.50;39.30
2749;DHT22;1382;52.142;11.618;2022-07-05T06:22:33;24.60;39.20
2749;DHT22;1382;52.142;11.618;2022-07-05T06:25:00;24.80;39.20
2749;DHT22;1382;52.142;11.618;2022-07-05T06:27:48;24.90;39.00
2749;DHT22;1382;52.142;11.618;2022-07-05T06:30:18;25.10;38.80
2749;DHT22;1382;52.142;11.618;2022-07-05T06:32:46;25.20;38.40
2749;DHT22;1382;52.142;11.618;2022-07-05T06:35:14;25.40;37.80
2749;DHT22;1382;52.142;11.618;2022-07-05T06:37:42;25.50;37.30
2749;DHT22;1382;52.142;11.618;2022-07-05T06:40:10;25.60;37.10
2749;DHT22;1382;52.142;11.618;2022-07-05T06:42:43;25.70;37.00
2749;DHT22;1382;52.142;11.618;2022-07-05T06:45:10;25.90;37.10
2749;DHT22;1382;52.142;11.618;2022-07-05T06:47:38;26.00;37.00
2749;DHT22;1382;52.142;11.618;2022-07-05T06:50:06;26.20;36.70
2749;DHT22;1382;52.142;11.618;2022-07-05T06:52:33;26.30;36.10
2749;DHT22;1382;52.142;11.618;2022-07-05T06:55:01;26.40;36.10
2749;DHT22;1382;52.142;11.618;2022-07-05T06:57:28;26.60;36.00
2749;DHT22;1382;52.142;11.618;2022-07-05T06:59:56;26.70;36.00
2749;DHT22;1382;52.142;11.618;2022-07-05T07:02:24;26.80;35.70
2749;DHT22;1382;52.142;11.618;2022-07-05T07:04:52;27.10;35.70
2749;DHT22;1382;52.142;11.618;2022-07-05T07:07:37;27.10;35.30
2749;DHT22;1382;52.142;11.618;2022-07-05T07:10:05;27.20;35.70
2749;DHT22;1382;52.142;11.618;2022-07-05T07:12:31;27.30;35.20
2749;DHT22;1382;52.142;11.618;2022-07-05T07:14:58;27.50;34.80
2749;DHT22;1382;52.142;11.618;2022-07-05T07:17:25;27.60;34.60
2749;DHT22;1382;52.142;11.618;2022-07-05T07:19:53;27.70;34.50
2749;DHT22;1382;52.142;11.618;2022-07-05T07:22:20;27.80;34.70
2749;DHT22;1382;52.142;11.618;2022-07-05T07:24:47;27.90;34.40
2749;DHT22;1382;52.142;11.618;2022-07-05T07:27:14;28.00;34.00
2749;DHT22;1382;52.142;11.618;2022-07-05T07:29:41;28.20;33.80
2749;DHT22;1382;52.142;11.618;2022-07-05T07:32:09;28.30;34.10
2749;DHT22;1382;52.142;11.618;2022-07-05T07:34:36;28.40;33.50
2749;DHT22;1382;52.142;11.618;2022-07-05T07:37:05;28.50;34.00
2749;DHT22;1382;52.142;11.618;2022-07-05T07:39:32;28.60;33.70
2749;DHT22;1382;52.142;11.618;2022-07-05T07:41:59;28.80;33.90
2749;DHT22;1382;52.142;11.618;2022-07-05T07:44:25;28.90;33.10
2749;DHT22;1382;52.142;11.618;2022-07-05T07:46:52;29.10;33.60
2749;DHT22;1382;52.142;11.618;2022-07-05T07:49:19;29.10;33.20
2749;DHT22;1382;52.142;11.618;2022-07-05T07:51:46;29.20;32.70
2749;DHT22;1382;52.142;11.618;2022-07-05T07:54:14;29.50;33.20
2749;DHT22;1382;52.142;11.618;2022-07-05T07:56:41;29.50;33.50
2749;DHT22;1382;52.142;11.618;2022-07-05T07:59:08;29.60;32.60
2749;DHT22;1382;52.142;11.618;2022-07-05T08:01:35;29.70;31.80
2749;DHT22;1382;52.142;11.618;2022-07-05T08:04:10;29.80;32.30
2749;DHT22;1382;52.142;11.618;2022-07-05T08:06:37;29.90;32.70
2749;DHT22;1382;52.142;11.618;2022-07-05T08:09:03;30.00;32.50
2749;DHT22;1382;52.142;11.618;2022-07-05T08:11:31;30.10;32.30
2749;DHT22;1382;52.142;11.618;2022-07-05T08:13:58;30.20;31.40
2749;DHT22;1382;52.142;11.618;2022-07-05T08:16:25;30.30;31.00
2749;DHT22;1382;52.142;11.618;2022-07-05T08:18:52;30.40;31.10
2749;DHT22;1382;52.142;11.618;2022-07-05T08:21:19;30.50;31.00
2749;DHT22;1382;52.142;11.618;2022-07-05T08:23:46;30.50;30.80
2749;DHT22;1382;52.142;11.618;2022-07-05T08:26:12;30.60;30.90
2749;DHT22;1382;52.142;11.618;2022-07-05T08:28:40;30.70;31.60
2749;DHT22;1382;52.142;11.618;2022-07-05T08:31:30;30.90;31.30
2749;DHT22;1382;52.142;11.618;2022-07-05T08:33:58;31.00;32.00
2749;DHT22;1382;52.142;11.618;2022-07-05T08:36:25;31.00;31.30
2749;DHT22;1382;52.142;11.618;2022-07-05T08:38:52;31.10;31.00
2749;DHT22;1382;52.142;11.618;2022-07-05T08:41:21;31.20;30.30
2749;DHT22;1382;52.142;11.618;2022-07-05T08:43:50;31.20;30.80
2749;DHT22;1382;52.142;11.618;2022-07-05T08:46:19;31.30;30.00
2749;DHT22;1382;52.142;11.618;2022-07-05T08:48:48;31.30;31.00
2749;DHT22;1382;52.142;11.618;2022-07-05T08:51:16;31.40;31.20
2749;DHT22;1382;52.142;11.618;2022-07-05T08:53:44;31.50;31.50
2749;DHT22;1382;52.142;11.618;2022-07-05T08:56:13;31.60;31.30
2749;DHT22;1382;52.142;11.618;2022-07-05T08:58:51;31.70;30.30
2749;DHT22;1382;52.142;11.618;2022-07-05T09:01:18;31.70;31.00
2749;DHT22;1382;52.142;11.618;2022-07-05T09:03:47;31.70;30.20
2749;DHT22;1382;52.142;11.618;2022-07-05T09:06:17;31.80;29.90
2749;DHT22;1382;52.142;11.618;2022-07-05T09:08:44;31.90;30.50
2749;DHT22;1382;52.142;11.618;2022-07-05T09:11:13;32.00;30.40
2749;DHT22;1382;52.142;11.618;2022-07-05T09:13:42;32.00;30.30
2749;DHT22;1382;52.142;11.618;2022-07-05T09:16:30;32.00;29.40
2749;DHT22;1382;52.142;11.618;2022-07-05T09:19:05;32.10;29.80
2749;DHT22;1382;52.142;11.618;2022-07-05T09:21:32;32.20;29.60
2749;DHT22;1382;52.142;11.618;2022-07-05T09:24:00;32.20;29.70
2749;DHT22;1382;52.142;11.618;2022-07-05T09:26:32;32.20;29.50
2749;DHT22;1382;52.142;11.618;2022-07-05T09:28:59;32.30;30.00
2749;DHT22;1382;52.142;11.618;2022-07-05T09:31:48;32.40;29.80
2749;DHT22;1382;52.142;11.618;2022-07-05T09:34:16;32.40;29.60
2749;DHT22;1382;52.142;11.618;2022-07-05T09:36:48;32.40;30.30
2749;DHT22;1382;52.142;11.618;2022-07-05T09:39:14;32.50;29.30
2749;DHT22;1382;52.142;11.618;2022-07-05T09:41:41;32.60;30.30
2749;DHT22;1382;52.142;11.618;2022-07-05T09:44:08;32.70;30.00
2749;DHT22;1382;52.142;11.618;2022-07-05T09:46:35;32.80;29.60
2749;DHT22;1382;52.142;11.618;2022-07-05T09:49:03;32.90;29.20
2749;DHT22;1382;52.142;11.618;2022-07-05T09:51:46;33.00;28.90
2749;DHT22;1382;52.142;11.618;2022-07-05T09:54:21;33.10;28.90
2749;DHT22;1382;52.142;11.618;2022-07-05T09:56:48;33.10;29.30
2749;DHT22;1382;52.142;11.618;2022-07-05T09:59:16;33.20;29.80
2749;DHT22;1382;52.142;11.618;2022-07-05T10:01:43;33.10;28.80
2749;DHT22;1382;52.142;11.618;2022-07-05T10:04:12;33.20;28.50
2749;DHT22;1382;52.142;11.618;2022-07-05T10:06:39;33.20;28.70
2749;DHT22;1382;52.142;11.618;2022-07-05T10:09:06;33.20;28.70
2749;DHT22;1382;52.142;11.618;2022-07-05T10:11:34;33.20;28.50
2749;DHT22;1382;52.142;11.618;2022-07-05T10:14:09;33.30;28.80
2749;DHT22;1382;52.142;11.618;2022-07-05T10:16:36;33.40;28.40
2749;DHT22;1382;52.142;11.618;2022-07-05T10:19:06;33.40;27.40
2749;DHT22;1382;52.142;11.618;2022-07-05T10:21:35;33.40;28.90
2749;DHT22;1382;52.142;11.618;2022-07-05T10:24:22;33.50;28.90
2749;DHT22;1382;52.142;11.618;2022-07-05T10:26:49;33.50;28.50
2749;DHT22;1382;52.142;11.618;2022-07-05T10:29:16;33.50;27.30
2749;DHT22;1382;52.142;11.618;2022-07-05T10:31:44;33.30;27.70
2749;DHT22;1382;52.142;11.618;2022-07-05T10:34:13;33.20;28.00
2749;DHT22;1382;52.142;11.618;2022-07-05T10:37:01;33.20;28.50
2749;DHT22;1382;52.142;11.618;2022-07-05T10:39:29;33.20;27.70
2749;DHT22;1382;52.142;11.618;2022-07-05T10:41:56;33.00;27.50
2749;DHT22;1382;52.142;11.618;2022-07-05T10:44:29;33.10;28.20
2749;DHT22;1382;52.142;11.618;2022-07-05T10:47:07;33.20;29.10
2749;DHT22;1382;52.142;11.618;2022-07-05T10:49:35;33.20;27.40
2749;DHT22;1382;52.142;11.618;2022-07-05T10:52:05;33.20;28.30
2749;DHT22;1382;52.142;11.618;2022-07-05T10:54:31;33.10;28.10
2749;DHT22;1382;52.142;11.618;2022-07-05T10:57:20;33.00;28.90
2749;DHT22;1382;52.142;11.618;2022-07-05T11:00:06;33.10;28.90
2749;DHT22;1382;52.142;11.618;2022-07-05T11:02:33;33.20;28.10
2749;DHT22;1382;52.142;11.618;2022-07-05T11:05:00;33.00;27.40
2749;DHT22;1382;52.142;11.618;2022-07-05T11:10:31;33.00;28.50
2749;DHT22;1382;52.142;11.618;2022-07-05T11:12:58;33.00;27.70
2749;DHT22;1382;52.142;11.618;2022-07-05T11:15:25;33.10;28.20
2749;DHT22;1382;52.142;11.618;2022-07-05T11:18:16;33.20;27.80
2749;DHT22;1382;52.142;11.618;2022-07-05T11:20:43;33.20;28.30
2749;DHT22;1382;52.142;11.618;2022-07-05T11:23:11;33.10;27.90
2749;DHT22;1382;52.142;11.618;2022-07-05T11:25:42;33.00;27.70
2749;DHT22;1382;52.142;11.618;2022-07-05T11:28:16;33.00;27.70
2749;DHT22;1382;52.142;11.618;2022-07-05T11:30:49;32.80;27.40
2749;DHT22;1382;52.142;11.618;2022-07-05T11:33:36;32.70;27.70
2749;DHT22;1382;52.142;11.618;2022-07-05T11:36:04;32.60;28.20
2749;DHT22;1382;52.142;11.618;2022-07-05T11:38:32;32.60;28.30
2749;DHT22;1382;52.142;11.618;2022-07-05T11:41:20;32.50;28.50
2749;DHT22;1382;52.142;11.618;2022-07-05T11:43:55;32.40;28.50
2749;DHT22;1382;52.142;11.618;2022-07-05T11:46:23;32.40;27.70
2749;DHT22;1382;52.142;11.618;2022-07-05T11:49:10;32.30;27.90
2749;DHT22;1382;52.142;11.618;2022-07-05T11:51:37;32.30;29.20
2749;DHT22;1382;52.142;11.618;2022-07-05T11:54:07;32.40;28.60
2749;DHT22;1382;52.142;11.618;2022-07-05T11:56:45;32.40;28.50
2749;DHT22;1382;52.142;11.618;2022-07-05T11:59:18;32.60;29.20
2749;DHT22;1382;52.142;11.618;2022-07-05T12:01:46;32.50;28.20
2749;DHT22;1382;52.142;11.618;2022-07-05T12:04:20;32.70;29.00
2749;DHT22;1382;52.142;11.618;2022-07-05T12:06:47;32.70;28.00
2749;DHT22;1382;52.142;11.618;2022-07-05T12:09:14;32.70;28.20
2749;DHT22;1382;52.142;11.618;2022-07-05T12:11:49;32.60;27.30
2749;DHT22;1382;52.142;11.618;2022-07-05T12:14:22;32.70;27.30
2749;DHT22;1382;52.142;11.618;2022-07-05T12:16:50;32.70;27.50
2749;DHT22;1382;52.142;11.618;2022-07-05T12:19:35;32.70;27.90
2749;DHT22;1382;52.142;11.618;2022-07-05T12:22:02;32.70;26.90
2749;DHT22;1382;52.142;11.618;2022-07-05T12:24:29;32.60;27.70
2749;DHT22;1382;52.142;11.618;2022-07-05T12:26:57;32.60;27.20
2749;DHT22;1382;52.142;11.618;2022-07-05T12:29:24;32.60;27.00
2749;DHT22;1382;52.142;11.618;2022-07-05T12:32:01;32.50;27.40
2749;DHT22;1382;52.142;11.618;2022-07-05T12:34:28;32.60;28.30
2749;DHT22;1382;52.142;11.618;2022-07-05T12:36:56;32.80;26.90
2749;DHT22;1382;52.142;11.618;2022-07-05T12:39:23;32.60;26.90
2749;DHT22;1382;52.142;11.618;2022-07-05T12:41:50;32.50;27.60
2749;DHT22;1382;52.142;11.618;2022-07-05T12:44:19;32.70;27.40
2749;DHT22;1382;52.142;11.618;2022-07-05T12:46:47;32.70;26.80
2749;DHT22;1382;52.142;11.618;2022-07-05T12:49:14;32.80;27.20
2749;DHT22;1382;52.142;11.618;2022-07-05T12:51:42;32.80;26.30
2749;DHT22;1382;52.142;11.618;2022-07-05T12:54:18;32.80;26.60
2749;DHT22;1382;52.142;11.618;2022-07-05T12:56:49;32.80;26.40
2749;DHT22;1382;52.142;11.618;2022-07-05T12:59:37;32.70;26.30
2749;DHT22;1382;52.142;11.618;2022-07-05T13:02:04;32.60;26.80
2749;DHT22;1382;52.142;11.618;2022-07-05T13:04:31;32.60;26.40
2749;DHT22;1382;52.142;11.618;2022-07-05T13:06:59;32.80;27.00
2749;DHT22;1382;52.142;11.618;2022-07-05T13:26:39;29.90;28.60
2749;DHT22;1382;52.142;11.618;2022-07-05T13:29:06;29.80;29.20
2749;DHT22;1382;52.142;11.618;2022-07-05T13:31:32;30.10;28.30
2749;DHT22;1382;52.142;11.618;2022-07-05T13:33:59;30.50;27.80
2749;DHT22;1382;52.142;11.618;2022-07-05T13:36:27;30.80;28.20
2749;DHT22;1382;52.142;11.618;2022-07-05T13:38:54;31.20;26.70
2749;DHT22;1382;52.142;11.618;2022-07-05T13:41:21;31.50;27.10
2749;DHT22;1382;52.142;11.618;2022-07-05T13:43:49;31.70;27.10
2749;DHT22;1382;52.142;11.618;2022-07-05T13:46:16;31.90;26.70
2749;DHT22;1382;52.142;11.618;2022-07-05T13:48:43;32.00;26.20
2749;DHT22;1382;52.142;11.618;2022-07-05T13:51:11;32.10;26.00
2749;DHT22;1382;52.142;11.618;2022-07-05T13:53:38;32.10;25.70
2749;DHT22;1382;52.142;11.618;2022-07-05T13:56:05;32.10;25.70
2749;DHT22;1382;52.142;11.618;2022-07-05T13:58:33;32.10;25.90
2749;DHT22;1382;52.142;11.618;2022-07-05T14:01:02;32.20;24.90
2749;DHT22;1382;52.142;11.618;2022-07-05T14:03:30;32.20;25.60
2749;DHT22;1382;52.142;11.618;2022-07-05T14:05:57;32.20;25.30
2749;DHT22;1382;52.142;11.618;2022-07-05T14:08:24;32.40;25.30
2749;DHT22;1382;52.142;11.618;2022-07-05T14:10:52;32.20;24.70
2749;DHT22;1382;52.142;11.618;2022-07-05T14:13:19;32.20;24.20
2749;DHT22;1382;52.142;11.618;2022-07-05T14:15:46;32.10;25.10
2749;DHT22;1382;52.142;11.618;2022-07-05T14:18:15;32.10;24.80
2749;DHT22;1382;52.142;11.618;2022-07-05T14:20:43;32.00;24.90
2749;DHT22;1382;52.142;11.618;2022-07-05T14:23:11;32.00;25.60
2749;DHT22;1382;52.142;11.618;2022-07-05T14:25:38;32.00;25.90
2749;DHT22;1382;52.142;11.618;2022-07-05T14:28:05;32.20;24.70
2749;DHT22;1382;52.142;11.618;2022-07-05T14:30:31;32.00;25.10
2749;DHT22;1382;52.142;11.618;2022-07-05T14:32:58;32.10;24.80
2749;DHT22;1382;52.142;11.618;2022-07-05T14:35:26;32.20;24.70
2749;DHT22;1382;52.142;11.618;2022-07-05T14:37:53;32.20;24.70
2749;DHT22;1382;52.142;11.618;2022-07-05T14:40:20;32.20;25.10
2749;DHT22;1382;52.142;11.618;2022-07-05T14:42:46;32.20;24.40
2749;DHT22;1382;52.142;11.618;2022-07-05T14:45:13;32.20;24.80
2749;DHT22;1382;52.142;11.618;2022-07-05T14:47:40;32.20;24.70
2749;DHT22;1382;52.142;11.618;2022-07-05T14:50:07;32.10;24.70
2749;DHT22;1382;52.142;11.618;2022-07-05T14:52:35;32.00;24.50
2749;DHT22;1382;52.142;11.618;2022-07-05T14:55:02;32.10;23.80
2749;DHT22;1382;52.142;11.618;2022-07-05T14:57:29;31.90;23.80
2749;DHT22;1382;52.142;11.618;2022-07-05T14:59:56;31.80;24.20
2749;DHT22;1382;52.142;11.618;2022-07-05T15:02:23;31.80;24.80
2749;DHT22;1382;52.142;11.618;2022-07-05T15:04:50;32.00;24.70
2749;DHT22;1382;52.142;11.618;2022-07-05T15:07:16;31.90;24.30
2749;DHT22;1382;52.142;11.618;2022-07-05T15:09:44;32.00;23.20
2749;DHT22;1382;52.142;11.618;2022-07-05T15:12:11;31.90;23.60
2749;DHT22;1382;52.142;11.618;2022-07-05T15:14:38;31.80;23.20
2749;DHT22;1382;52.142;11.618;2022-07-05T15:17:05;31.80;24.10
2749;DHT22;1382;52.142;11.618;2022-07-05T15:19:31;31.80;24.40
2749;DHT22;1382;52.142;11.618;2022-07-05T15:21:58;32.00;24.10
2749;DHT22;1382;52.142;11.618;2022-07-05T15:24:25;32.00;23.40
2749;DHT22;1382;52.142;11.618;2022-07-05T15:26:53;32.10;24.00
2749;DHT22;1382;52.142;11.618;2022-07-05T15:29:38;32.10;23.40
2749;DHT22;1382;52.142;11.618;2022-07-05T15:32:05;32.20;23.00
2749;DHT22;1382;52.142;11.618;2022-07-05T15:34:32;32.20;23.50
2749;DHT22;1382;52.142;11.618;2022-07-05T15:36:59;32.30;22.90
2749;DHT22;1382;52.142;11.618;2022-07-05T15:39:26;32.40;23.70
2749;DHT22;1382;52.142;11.618;2022-07-05T15:41:54;32.50;22.10
2749;DHT22;1382;52.142;11.618;2022-07-05T15:44:20;32.50;22.20
2749;DHT22;1382;52.142;11.618;2022-07-05T15:46:47;32.50;23.00
2749;DHT22;1382;52.142;11.618;2022-07-05T15:49:14;32.70;22.40
2749;DHT22;1382;52.142;11.618;2022-07-05T15:51:41;32.70;22.80
2749;DHT22;1382;52.142;11.618;2022-07-05T15:54:08;32.70;22.90
2749;DHT22;1382;52.142;11.618;2022-07-05T15:56:35;32.70;22.80
2749;DHT22;1382;52.142;11.618;2022-07-05T15:59:03;32.80;22.20
2749;DHT22;1382;52.142;11.618;2022-07-05T16:01:30;32.80;22.90
2749;DHT22;1382;52.142;11.618;2022-07-05T16:03:57;32.90;22.60
2749;DHT22;1382;52.142;11.618;2022-07-05T16:06:24;32.90;22.90
2749;DHT22;1382;52.142;11.618;2022-07-05T16:08:51;33.00;21.80
2749;DHT22;1382;52.142;11.618;2022-07-05T16:11:18;32.90;22.40
2749;DHT22;1382;52.142;11.618;2022-07-05T16:13:44;33.00;22.10